sensor_id;sensor_type;location;lat;lon;timestamp;pressure;altitude;pressure_sealevel;temperature;humidity
65376;BME280;51976;47.332;9.404;2023-03-14T00:01:45;91501.41;;;9.21;73.00
65376;BME280;51976;47.332;9.404;2023-03-14T00:04:10;91503.09;;;9.16;72.94
65376;BME280;51976;47.332;9.404;2023-03-14T00:06:36;91492.84;;;8.96;73.49
65376;BME280;51976;47.332;9.404;2023-03-14T00:09:01;91479.91;;;8.62;74.45
65376;BME280;51976;47.332;9.404;2023-03-14T00:11:26;91458.22;;;8.36;75.33
65376;BME280;51976;47.332;9.404;2023-03-14T00:13:52;91463.38;;;8.46;74.78
65376;BME280;51976;47.332;9.404;2023-03-14T00:16:19;91462.97;;;8.39;75.49
65376;BME280;51976;47.332;9.404;2023-03-14T00:18:44;91466.56;;;8.35;75.02
65376;BME280;51976;47.332;9.404;2023-03-14T00:21:11;91470.72;;;8.41;74.25
65376;BME280;51976;47.332;9.404;2023-03-14T00:23:38;91478.81;;;8.00;76.04
65376;BME280;51976;47.332;9.404;2023-03-14T00:26:12;91482.47;;;8.04;75.32
65376;BME280;51976;47.332;9.404;2023-03-14T00:28:38;91486.94;;;8.08;74.58
65376;BME280;51976;47.332;9.404;2023-03-14T00:31:06;91474.44;;;8.04;73.56
65376;BME280;51976;47.332;9.404;2023-03-14T00:33:32;91504.16;;;8.07;73.68
65376;BME280;51976;47.332;9.404;2023-03-14T00:36:00;91502.47;;;8.11;73.63
65376;BME280;51976;47.332;9.404;2023-03-14T00:38:26;91501.34;;;7.99;74.24
65376;BME280;51976;47.332;9.404;2023-03-14T00:40:52;91527.31;;;8.03;74.61
65376;BME280;51976;47.332;9.404;2023-03-14T00:43:19;91526.69;;;7.79;74.38
65376;BME280;51976;47.332;9.404;2023-03-14T00:45:47;91530.50;;;7.92;73.44
65376;BME280;51976;47.332;9.404;2023-03-14T00:48:13;91543.69;;;7.74;73.59
65376;BME280;51976;47.332;9.404;2023-03-14T00:50:38;91540.31;;;7.82;72.64
65376;BME280;51976;47.332;9.404;2023-03-14T00:53:04;91529.97;;;7.62;70.24
65376;BME280;51976;47.332;9.404;2023-03-14T00:55:29;91528.59;;;7.65;71.22
65376;BME280;51976;47.332;9.404;2023-03-14T00:57:54;91510.28;;;7.53;71.06
65376;BME280;51976;47.332;9.404;2023-03-14T01:00:20;91508.72;;;7.66;70.83
65376;BME280;51976;47.332;9.404;2023-03-14T01:02:45;91504.75;;;7.63;70.72
65376;BME280;51976;47.332;9.404;2023-03-14T01:05:11;91506.91;;;7.47;71.29
65376;BME280;51976;47.332;9.404;2023-03-14T01:07:36;91488.19;;;7.29;71.50
65376;BME280;51976;47.332;9.404;2023-03-14T01:10:03;91493.88;;;7.41;72.17
65376;BME280;51976;47.332;9.404;2023-03-14T01:12:29;91490.38;;;7.27;73.21
65376;BME280;51976;47.332;9.404;2023-03-14T01:14:54;91488.19;;;7.29;72.35
65376;BME280;51976;47.332;9.404;2023-03-14T01:17:20;91480.88;;;7.48;71.83
65376;BME280;51976;47.332;9.404;2023-03-14T01:19:45;91468.75;;;7.37;71.90
65376;BME280;51976;47.332;9.404;2023-03-14T01:22:10;91462.88;;;7.21;71.43
65376;BME280;51976;47.332;9.404;2023-03-14T01:24:37;91449.09;;;7.28;71.51
65376;BME280;51976;47.332;9.404;2023-03-14T01:27:02;91440.84;;;7.10;72.04
65376;BME280;51976;47.332;9.404;2023-03-14T01:29:28;91445.84;;;6.98;71.87
65376;BME280;51976;47.332;9.404;2023-03-14T01:31:53;91437.72;;;7.03;71.62
65376;BME280;51976;47.332;9.404;2023-03-14T01:34:18;91421.81;;;6.79;71.95
65376;BME280;51976;47.332;9.404;2023-03-14T01:36:44;91429.19;;;6.69;71.96
65376;BME280;51976;47.332;9.404;2023-03-14T01:39:09;91375.69;;;6.50;72.37
65376;BME280;51976;47.332;9.404;2023-03-14T01:41:35;91412.78;;;6.57;72.62
65376;BME280;51976;47.332;9.404;2023-03-14T01:44:01;91407.81;;;6.50;72.57
65376;BME280;51976;47.332;9.404;2023-03-14T01:46:32;91375.28;;;6.75;72.16
65376;BME280;51976;47.332;9.404;2023-03-14T01:49:11;91336.41;;;6.92;70.66
65376;BME280;51976;47.332;9.404;2023-03-14T01:51:57;91339.09;;;7.05;69.55
65376;BME280;51976;47.332;9.404;2023-03-14T01:54:28;91343.84;;;6.81;70.05
65376;BME280;51976;47.332;9.404;2023-03-14T01:57:04;91337.69;;;6.94;70.24
65376;BME280;51976;47.332;9.404;2023-03-14T01:59:32;91338.47;;;6.95;69.92
65376;BME280;51976;47.332;9.404;2023-03-14T02:01:58;91341.84;;;6.73;70.87
65376;BME280;51976;47.332;9.404;2023-03-14T02:04:28;91334.81;;;6.44;71.49
65376;BME280;51976;47.332;9.404;2023-03-14T02:07:10;91319.78;;;6.49;71.14
65376;BME280;51976;47.332;9.404;2023-03-14T02:09:38;91323.59;;;6.89;70.84
65376;BME280;51976;47.332;9.404;2023-03-14T02:12:06;91339.88;;;6.78;71.50
65376;BME280;51976;47.332;9.404;2023-03-14T02:14:35;91332.72;;;6.88;70.90
65376;BME280;51976;47.332;9.404;2023-03-14T02:17:03;91298.69;;;6.74;71.22
65376;BME280;51976;47.332;9.404;2023-03-14T02:19:48;91300.78;;;6.91;71.16
65376;BME280;51976;47.332;9.404;2023-03-14T02:22:16;91310.50;;;7.01;71.59
65376;BME280;51976;47.332;9.404;2023-03-14T02:25:11;91290.03;;;6.64;72.79
65376;BME280;51976;47.332;9.404;2023-03-14T02:27:39;91292.00;;;6.44;73.34
65376;BME280;51976;47.332;9.404;2023-03-14T02:30:08;91293.00;;;6.62;73.43
65376;BME280;51976;47.332;9.404;2023-03-14T02:32:37;91271.41;;;6.72;73.16
65376;BME280;51976;47.332;9.404;2023-03-14T02:35:08;91259.69;;;6.68;71.62
65376;BME280;51976;47.332;9.404;2023-03-14T02:37:39;91288.66;;;6.94;71.50
65376;BME280;51976;47.332;9.404;2023-03-14T02:40:06;91290.84;;;6.64;73.30
65376;BME280;51976;47.332;9.404;2023-03-14T02:42:32;91299.16;;;6.63;73.48
65376;BME280;51976;47.332;9.404;2023-03-14T02:45:34;91306.13;;;6.77;73.00
65376;BME280;51976;47.332;9.404;2023-03-14T02:48:04;91305.94;;;6.74;73.43
65376;BME280;51976;47.332;9.404;2023-03-14T02:50:32;91304.63;;;6.71;72.94
65376;BME280;51976;47.332;9.404;2023-03-14T02:52:59;91303.75;;;6.76;72.63
65376;BME280;51976;47.332;9.404;2023-03-14T02:55:24;91304.25;;;6.78;72.75
65376;BME280;51976;47.332;9.404;2023-03-14T02:57:52;91302.66;;;6.91;71.99
65376;BME280;51976;47.332;9.404;2023-03-14T03:00:18;91273.00;;;6.87;71.86
65376;BME280;51976;47.332;9.404;2023-03-14T03:02:43;91299.19;;;6.90;72.25
65376;BME280;51976;47.332;9.404;2023-03-14T03:05:09;91306.13;;;7.19;71.38
65376;BME280;51976;47.332;9.404;2023-03-14T03:07:34;91296.91;;;7.25;71.57
65376;BME280;51976;47.332;9.404;2023-03-14T03:09:59;91292.97;;;7.08;72.49
65376;BME280;51976;47.332;9.404;2023-03-14T03:12:25;91289.06;;;7.14;72.30
65376;BME280;51976;47.332;9.404;2023-03-14T03:14:50;91294.91;;;7.17;72.53
65376;BME280;51976;47.332;9.404;2023-03-14T03:17:16;91321.03;;;7.38;71.35
65376;BME280;51976;47.332;9.404;2023-03-14T03:19:42;91315.28;;;7.31;70.54
65376;BME280;51976;47.332;9.404;2023-03-14T03:22:07;91307.94;;;7.37;69.13
65376;BME280;51976;47.332;9.404;2023-03-14T03:24:32;91300.94;;;7.50;68.53
65376;BME280;51976;47.332;9.404;2023-03-14T03:26:58;91315.28;;;7.81;67.39
65376;BME280;51976;47.332;9.404;2023-03-14T03:29:23;91312.94;;;7.66;67.69
65376;BME280;51976;47.332;9.404;2023-03-14T03:31:49;91308.69;;;7.51;68.72
65376;BME280;51976;47.332;9.404;2023-03-14T03:34:14;91311.66;;;7.50;68.71
65376;BME280;51976;47.332;9.404;2023-03-14T03:36:40;91307.47;;;7.57;66.48
65376;BME280;51976;47.332;9.404;2023-03-14T03:39:05;91312.16;;;7.65;65.70
65376;BME280;51976;47.332;9.404;2023-03-14T03:41:31;91309.47;;;7.65;65.48
65376;BME280;51976;47.332;9.404;2023-03-14T03:43:57;91283.44;;;7.66;65.14
65376;BME280;51976;47.332;9.404;2023-03-14T03:46:22;91283.09;;;7.81;64.07
65376;BME280;51976;47.332;9.404;2023-03-14T03:48:48;91255.03;;;7.65;64.35
65376;BME280;51976;47.332;9.404;2023-03-14T03:51:15;91274.44;;;7.84;64.56
65376;BME280;51976;47.332;9.404;2023-03-14T03:53:42;91269.09;;;7.70;64.87
65376;BME280;51976;47.332;9.404;2023-03-14T03:56:08;91257.38;;;7.66;64.26
65376;BME280;51976;47.332;9.404;2023-03-14T03:58:34;91281.44;;;7.94;65.05
65376;BME280;51976;47.332;9.404;2023-03-14T04:00:59;91276.41;;;7.92;64.34
65376;BME280;51976;47.332;9.404;2023-03-14T04:03:25;91273.53;;;7.89;63.00
65376;BME280;51976;47.332;9.404;2023-03-14T04:06:02;91269.50;;;8.00;63.81
65376;BME280;51976;47.332;9.404;2023-03-14T04:08:28;91268.56;;;7.82;62.68
65376;BME280;51976;47.332;9.404;2023-03-14T04:10:57;91267.66;;;7.87;63.23
65376;BME280;51976;47.332;9.404;2023-03-14T04:13:24;91262.50;;;7.90;63.14
65376;BME280;51976;47.332;9.404;2023-03-14T04:15:50;91259.94;;;7.85;62.37
65376;BME280;51976;47.332;9.404;2023-03-14T04:18:15;91260.84;;;7.80;62.11
65376;BME280;51976;47.332;9.404;2023-03-14T04:20:41;91264.00;;;7.82;62.18
65376;BME280;51976;47.332;9.404;2023-03-14T04:23:06;91268.78;;;7.86;61.74
65376;BME280;51976;47.332;9.404;2023-03-14T04:25:31;91272.66;;;7.79;62.64
65376;BME280;51976;47.332;9.404;2023-03-14T04:27:57;91262.50;;;7.90;62.59
65376;BME280;51976;47.332;9.404;2023-03-14T04:30:22;91260.03;;;8.02;62.45
65376;BME280;51976;47.332;9.404;2023-03-14T04:32:48;91261.50;;;7.86;61.76
65376;BME280;51976;47.332;9.404;2023-03-14T04:35:13;91259.81;;;7.90;62.43
65376;BME280;51976;47.332;9.404;2023-03-14T04:37:38;91245.03;;;8.01;61.82
65376;BME280;51976;47.332;9.404;2023-03-14T04:40:05;91240.41;;;7.93;60.99
65376;BME280;51976;47.332;9.404;2023-03-14T04:42:32;91232.00;;;8.08;61.06
65376;BME280;51976;47.332;9.404;2023-03-14T04:44:57;91205.16;;;8.08;60.34
65376;BME280;51976;47.332;9.404;2023-03-14T04:47:23;91209.56;;;8.04;60.47
65376;BME280;51976;47.332;9.404;2023-03-14T04:49:48;91197.91;;;7.87;60.32
65376;BME280;51976;47.332;9.404;2023-03-14T04:52:13;91188.03;;;7.96;59.53
65376;BME280;51976;47.332;9.404;2023-03-14T04:54:39;91174.53;;;8.09;59.86
65376;BME280;51976;47.332;9.404;2023-03-14T04:57:04;91160.69;;;7.94;58.01
65376;BME280;51976;47.332;9.404;2023-03-14T04:59:30;91145.25;;;7.91;58.73
65376;BME280;51976;47.332;9.404;2023-03-14T05:01:55;91158.78;;;8.17;58.79
65376;BME280;51976;47.332;9.404;2023-03-14T05:04:20;91167.34;;;8.19;58.11
65376;BME280;51976;47.332;9.404;2023-03-14T05:06:46;91164.47;;;8.15;58.34
65376;BME280;51976;47.332;9.404;2023-03-14T05:09:11;91167.09;;;8.06;58.63
65376;BME280;51976;47.332;9.404;2023-03-14T05:11:37;91163.34;;;7.85;59.39
65376;BME280;51976;47.332;9.404;2023-03-14T05:14:02;91150.13;;;7.89;59.44
65376;BME280;51976;47.332;9.404;2023-03-14T05:16:27;91164.06;;;7.99;59.55
65376;BME280;51976;47.332;9.404;2023-03-14T05:18:53;91153.38;;;8.08;59.44
65376;BME280;51976;47.332;9.404;2023-03-14T05:21:18;91144.16;;;8.00;59.75
65376;BME280;51976;47.332;9.404;2023-03-14T05:23:44;91138.63;;;7.97;58.87
65376;BME280;51976;47.332;9.404;2023-03-14T05:26:09;91132.94;;;7.90;58.29
65376;BME280;51976;47.332;9.404;2023-03-14T05:28:34;91129.53;;;8.06;58.02
65376;BME280;51976;47.332;9.404;2023-03-14T05:31:00;91123.13;;;8.16;57.81
65376;BME280;51976;47.332;9.404;2023-03-14T05:33:25;91107.28;;;8.06;57.33
65376;BME280;51976;47.332;9.404;2023-03-14T05:35:51;91102.75;;;8.15;56.29
65376;BME280;51976;47.332;9.404;2023-03-14T05:38:16;91062.38;;;7.89;56.66
65376;BME280;51976;47.332;9.404;2023-03-14T05:40:41;91087.50;;;8.02;57.02
65376;BME280;51976;47.332;9.404;2023-03-14T05:43:07;91077.69;;;7.89;56.90
65376;BME280;51976;47.332;9.404;2023-03-14T05:45:33;91074.34;;;7.83;57.40
65376;BME280;51976;47.332;9.404;2023-03-14T05:47:59;91077.81;;;7.84;58.36
65376;BME280;51976;47.332;9.404;2023-03-14T05:50:24;91068.84;;;7.57;59.18
65376;BME280;51976;47.332;9.404;2023-03-14T05:52:50;91092.66;;;7.59;59.22
65376;BME280;51976;47.332;9.404;2023-03-14T05:55:15;91089.44;;;7.48;59.01
65376;BME280;51976;47.332;9.404;2023-03-14T05:57:40;91079.06;;;7.55;58.97
65376;BME280;51976;47.332;9.404;2023-03-14T06:00:06;91093.34;;;7.64;58.80
65376;BME280;51976;47.332;9.404;2023-03-14T06:02:32;91090.47;;;7.61;59.08
65376;BME280;51976;47.332;9.404;2023-03-14T06:04:57;91085.59;;;7.40;59.87
65376;BME280;51976;47.332;9.404;2023-03-14T06:07:23;91083.81;;;7.13;61.14
65376;BME280;51976;47.332;9.404;2023-03-14T06:09:48;91089.19;;;7.13;61.04
65376;BME280;51976;47.332;9.404;2023-03-14T06:12:13;91091.22;;;7.84;65.11
65376;BME280;51976;47.332;9.404;2023-03-14T06:14:39;91083.44;;;7.73;65.26
65376;BME280;51976;47.332;9.404;2023-03-14T06:17:04;91088.06;;;7.81;61.66
65376;BME280;51976;47.332;9.404;2023-03-14T06:19:29;91082.56;;;8.66;67.62
65376;BME280;51976;47.332;9.404;2023-03-14T06:21:55;91084.81;;;9.07;63.10
65376;BME280;51976;47.332;9.404;2023-03-14T06:24:20;91078.75;;;9.70;64.80
65376;BME280;51976;47.332;9.404;2023-03-14T06:26:46;91079.28;;;9.21;59.76
65376;BME280;51976;47.332;9.404;2023-03-14T06:29:11;91045.44;;;9.20;60.88
65376;BME280;51976;47.332;9.404;2023-03-14T06:31:38;91067.69;;;8.11;59.98
65376;BME280;51976;47.332;9.404;2023-03-14T06:34:04;91056.13;;;7.71;60.74
65376;BME280;51976;47.332;9.404;2023-03-14T06:36:29;91059.41;;;7.68;61.93
65376;BME280;51976;47.332;9.404;2023-03-14T06:38:54;91058.31;;;7.69;62.60
65376;BME280;51976;47.332;9.404;2023-03-14T06:41:20;91057.22;;;7.70;62.77
65376;BME280;51976;47.332;9.404;2023-03-14T06:43:45;91025.44;;;7.55;63.50
65376;BME280;51976;47.332;9.404;2023-03-14T06:46:10;91049.63;;;7.64;63.08
65376;BME280;51976;47.332;9.404;2023-03-14T06:48:36;91046.09;;;7.55;62.85
65376;BME280;51976;47.332;9.404;2023-03-14T06:51:01;91053.72;;;7.61;63.32
65376;BME280;51976;47.332;9.404;2023-03-14T06:53:27;91044.91;;;7.69;63.43
65376;BME280;51976;47.332;9.404;2023-03-14T06:55:52;91003.56;;;7.31;62.87
65376;BME280;51976;47.332;9.404;2023-03-14T06:58:17;91047.19;;;7.54;63.06
65376;BME280;51976;47.332;9.404;2023-03-14T07:00:43;91036.06;;;7.16;63.78
65376;BME280;51976;47.332;9.404;2023-03-14T07:03:09;91059.59;;;7.19;64.47
65376;BME280;51976;47.332;9.404;2023-03-14T07:05:35;91070.38;;;7.05;65.58
65376;BME280;51976;47.332;9.404;2023-03-14T07:08:00;91057.88;;;6.78;66.40
65376;BME280;51976;47.332;9.404;2023-03-14T07:10:26;91081.44;;;6.90;66.31
65376;BME280;51976;47.332;9.404;2023-03-14T07:12:51;91080.34;;;6.91;66.15
65376;BME280;51976;47.332;9.404;2023-03-14T07:15:17;91094.53;;;6.91;65.10
65376;BME280;51976;47.332;9.404;2023-03-14T07:17:43;91089.44;;;7.26;65.10
65376;BME280;51976;47.332;9.404;2023-03-14T07:20:09;91098.75;;;7.51;63.24
65376;BME280;51976;47.332;9.404;2023-03-14T07:22:34;91099.69;;;7.77;62.76
65376;BME280;51976;47.332;9.404;2023-03-14T07:25:00;91089.03;;;7.86;63.30
65376;BME280;51976;47.332;9.404;2023-03-14T07:27:25;91107.03;;;7.94;64.23
65376;BME280;51976;47.332;9.404;2023-03-14T07:29:50;91097.47;;;7.48;65.35
65376;BME280;51976;47.332;9.404;2023-03-14T07:32:16;91107.22;;;7.44;66.05
65376;BME280;51976;47.332;9.404;2023-03-14T07:34:41;91081.41;;;7.26;66.23
65376;BME280;51976;47.332;9.404;2023-03-14T07:37:08;91086.75;;;7.26;66.83
65376;BME280;51976;47.332;9.404;2023-03-14T07:39:33;91098.50;;;7.16;67.67
65376;BME280;51976;47.332;9.404;2023-03-14T07:41:59;91099.94;;;7.36;67.64
65376;BME280;51976;47.332;9.404;2023-03-14T07:44:25;91108.91;;;7.40;67.32
65376;BME280;51976;47.332;9.404;2023-03-14T07:46:50;91087.47;;;7.40;67.06
65376;BME280;51976;47.332;9.404;2023-03-14T07:49:16;91109.25;;;7.61;66.96
65376;BME280;51976;47.332;9.404;2023-03-14T07:51:41;91101.34;;;7.87;66.08
65376;BME280;51976;47.332;9.404;2023-03-14T07:54:09;91103.25;;;7.95;66.15
65376;BME280;51976;47.332;9.404;2023-03-14T07:56:34;91095.75;;;8.05;65.99
65376;BME280;51976;47.332;9.404;2023-03-14T07:58:59;91100.63;;;8.34;65.78
65376;BME280;51976;47.332;9.404;2023-03-14T08:01:25;91097.88;;;8.26;66.24
65376;BME280;51976;47.332;9.404;2023-03-14T08:03:50;91103.41;;;8.29;66.10
65376;BME280;51976;47.332;9.404;2023-03-14T08:06:16;91098.78;;;8.21;65.90
65376;BME280;51976;47.332;9.404;2023-03-14T08:08:41;91105.91;;;8.26;66.33
65376;BME280;51976;47.332;9.404;2023-03-14T08:11:07;91117.75;;;8.47;65.98
65376;BME280;51976;47.332;9.404;2023-03-14T08:13:36;91107.53;;;8.66;64.69
65376;BME280;51976;47.332;9.404;2023-03-14T08:16:01;91096.31;;;8.73;63.36
65376;BME280;51976;47.332;9.404;2023-03-14T08:18:27;91111.34;;;8.91;62.36
65376;BME280;51976;47.332;9.404;2023-03-14T08:20:52;91112.31;;;8.95;60.81
65376;BME280;51976;47.332;9.404;2023-03-14T08:23:18;91088.91;;;8.87;60.07
65376;BME280;51976;47.332;9.404;2023-03-14T08:25:43;91084.00;;;8.89;59.91
65376;BME280;51976;47.332;9.404;2023-03-14T08:28:08;91093.19;;;9.05;59.78
65376;BME280;51976;47.332;9.404;2023-03-14T08:30:34;91094.63;;;9.11;59.48
65376;BME280;51976;47.332;9.404;2023-03-14T08:33:02;91096.03;;;9.18;59.25
65376;BME280;51976;47.332;9.404;2023-03-14T08:35:27;91069.31;;;9.04;59.13
65376;BME280;51976;47.332;9.404;2023-03-14T08:37:53;91101.56;;;9.12;60.24
65376;BME280;51976;47.332;9.404;2023-03-14T08:40:19;91098.75;;;9.26;59.67
65376;BME280;51976;47.332;9.404;2023-03-14T08:42:44;91107.28;;;9.37;59.35
65376;BME280;51976;47.332;9.404;2023-03-14T08:45:14;91096.03;;;9.35;59.78
65376;BME280;51976;47.332;9.404;2023-03-14T08:47:41;91093.97;;;9.40;59.73
65376;BME280;51976;47.332;9.404;2023-03-14T08:50:07;91102.50;;;9.08;60.73
65376;BME280;51976;47.332;9.404;2023-03-14T08:52:34;91082.91;;;9.42;59.74
65376;BME280;51976;47.332;9.404;2023-03-14T08:55:00;91076.56;;;9.03;61.14
65376;BME280;51976;47.332;9.404;2023-03-14T08:57:26;91080.84;;;9.04;61.40
65376;BME280;51976;47.332;9.404;2023-03-14T08:59:55;91076.59;;;9.38;60.99
65376;BME280;51976;47.332;9.404;2023-03-14T09:02:21;91078.66;;;9.24;61.04
65376;BME280;51976;47.332;9.404;2023-03-14T09:04:46;91066.78;;;8.99;60.68
65376;BME280;51976;47.332;9.404;2023-03-14T09:07:12;91075.19;;;9.23;60.53
65376;BME280;51976;47.332;9.404;2023-03-14T09:09:37;91107.75;;;9.39;60.14
65376;BME280;51976;47.332;9.404;2023-03-14T09:12:03;91090.50;;;9.57;59.71
65376;BME280;51976;47.332;9.404;2023-03-14T09:14:30;91093.97;;;9.58;58.64
65376;BME280;51976;47.332;9.404;2023-03-14T09:16:55;91091.63;;;9.47;59.56
65376;BME280;51976;47.332;9.404;2023-03-14T09:19:21;91088.78;;;9.53;56.28
65376;BME280;51976;47.332;9.404;2023-03-14T09:21:46;91094.06;;;10.04;54.02
65376;BME280;51976;47.332;9.404;2023-03-14T09:24:12;91072.59;;;10.34;53.92
65376;BME280;51976;47.332;9.404;2023-03-14T09:26:37;91087.94;;;10.71;51.63
65376;BME280;51976;47.332;9.404;2023-03-14T09:29:03;91107.44;;;10.98;50.72
65376;BME280;51976;47.332;9.404;2023-03-14T09:31:28;91124.16;;;10.91;50.17
65376;BME280;51976;47.332;9.404;2023-03-14T09:33:57;91128.31;;;10.80;49.08
65376;BME280;51976;47.332;9.404;2023-03-14T09:36:22;91120.59;;;10.70;48.00
65376;BME280;51976;47.332;9.404;2023-03-14T09:38:50;91105.72;;;10.34;48.13
65376;BME280;51976;47.332;9.404;2023-03-14T09:41:18;91138.88;;;10.64;48.21
65376;BME280;51976;47.332;9.404;2023-03-14T09:43:47;91147.66;;;10.82;48.81
65376;BME280;51976;47.332;9.404;2023-03-14T09:46:16;91145.16;;;10.68;48.92
65376;BME280;51976;47.332;9.404;2023-03-14T09:48:43;91112.59;;;10.52;50.17
65376;BME280;51976;47.332;9.404;2023-03-14T09:51:15;91120.56;;;10.40;49.73
65376;BME280;51976;47.332;9.404;2023-03-14T09:53:44;91136.97;;;10.65;49.90
65376;BME280;51976;47.332;9.404;2023-03-14T09:56:17;91140.22;;;10.79;50.06
65376;BME280;51976;47.332;9.404;2023-03-14T09:58:47;91155.44;;;10.75;49.99
65376;BME280;51976;47.332;9.404;2023-03-14T10:01:15;91158.97;;;10.67;49.28
65376;BME280;51976;47.332;9.404;2023-03-14T10:03:45;91156.25;;;10.37;49.71
65376;BME280;51976;47.332;9.404;2023-03-14T10:06:12;91169.38;;;10.39;49.77
65376;BME280;51976;47.332;9.404;2023-03-14T10:08:42;91161.50;;;10.25;50.61
65376;BME280;51976;47.332;9.404;2023-03-14T10:11:16;91182.06;;;10.30;50.59
65376;BME280;51976;47.332;9.404;2023-03-14T10:14:10;91179.38;;;10.12;51.89
65376;BME280;51976;47.332;9.404;2023-03-14T10:16:45;91183.69;;;9.88;52.70
65376;BME280;51976;47.332;9.404;2023-03-14T10:19:13;91203.50;;;9.83;53.51
65376;BME280;51976;47.332;9.404;2023-03-14T10:21:43;91193.50;;;9.66;53.64
65376;BME280;51976;47.332;9.404;2023-03-14T10:24:19;91185.91;;;9.68;54.34
65376;BME280;51976;47.332;9.404;2023-03-14T10:26:48;91207.28;;;9.82;55.28
65376;BME280;51976;47.332;9.404;2023-03-14T10:29:15;91206.44;;;10.16;55.09
65376;BME280;51976;47.332;9.404;2023-03-14T10:31:50;91203.63;;;10.21;54.23
65376;BME280;51976;47.332;9.404;2023-03-14T10:34:22;91208.03;;;10.17;54.45
65376;BME280;51976;47.332;9.404;2023-03-14T10:36:53;91199.50;;;10.06;54.91
65376;BME280;51976;47.332;9.404;2023-03-14T10:39:41;91207.44;;;10.03;55.41
65376;BME280;51976;47.332;9.404;2023-03-14T10:42:24;91213.75;;;9.90;55.42
65376;BME280;51976;47.332;9.404;2023-03-14T10:44:57;91212.97;;;9.89;55.57
65376;BME280;51976;47.332;9.404;2023-03-14T10:47:26;91209.97;;;9.82;56.15
65376;BME280;51976;47.332;9.404;2023-03-14T10:49:53;91218.34;;;9.89;56.76
65376;BME280;51976;47.332;9.404;2023-03-14T10:52:24;91196.66;;;9.85;56.90
65376;BME280;51976;47.332;9.404;2023-03-14T10:54:57;91208.38;;;9.72;57.38
65376;BME280;51976;47.332;9.404;2023-03-14T10:57:23;91221.53;;;10.08;57.12
65376;BME280;51976;47.332;9.404;2023-03-14T10:59:49;91210.75;;;10.00;55.39
65376;BME280;51976;47.332;9.404;2023-03-14T11:02:27;91219.78;;;10.21;56.33
65376;BME280;51976;47.332;9.404;2023-03-14T11:05:15;91215.50;;;10.20;56.75
65376;BME280;51976;47.332;9.404;2023-03-14T11:07:45;91207.44;;;10.03;56.58
65376;BME280;51976;47.332;9.404;2023-03-14T11:10:34;91221.22;;;10.27;55.93
65376;BME280;51976;47.332;9.404;2023-03-14T11:13:24;91219.47;;;10.05;57.77
65376;BME280;51976;47.332;9.404;2023-03-14T11:16:14;91219.00;;;9.77;58.51
65376;BME280;51976;47.332;9.404;2023-03-14T11:19:28;91233.41;;;9.56;59.53
65376;BME280;51976;47.332;9.404;2023-03-14T11:21:59;91249.38;;;9.52;60.22
65376;BME280;51976;47.332;9.404;2023-03-14T11:24:55;91247.56;;;9.30;60.92
65376;BME280;51976;47.332;9.404;2023-03-14T11:27:42;91260.13;;;9.04;62.17
65376;BME280;51976;47.332;9.404;2023-03-14T11:30:33;91270.44;;;9.02;63.33
65376;BME280;51976;47.332;9.404;2023-03-14T11:33:14;91275.16;;;8.96;64.19
65376;BME280;51976;47.332;9.404;2023-03-14T11:35:48;91265.28;;;8.83;64.17
65376;BME280;51976;47.332;9.404;2023-03-14T11:41:39;91258.38;;;8.60;66.01
65376;BME280;51976;47.332;9.404;2023-03-14T11:44:32;91261.19;;;8.55;66.55
65376;BME280;51976;47.332;9.404;2023-03-14T11:47:05;91278.88;;;8.56;66.79
65376;BME280;51976;47.332;9.404;2023-03-14T11:49:41;91291.53;;;8.55;66.71
65376;BME280;51976;47.332;9.404;2023-03-14T11:52:23;91308.34;;;8.38;68.22
65376;BME280;51976;47.332;9.404;2023-03-14T11:55:00;91331.88;;;7.83;68.95
65376;BME280;51976;47.332;9.404;2023-03-14T11:57:27;91344.41;;;7.74;69.69
65376;BME280;51976;47.332;9.404;2023-03-14T12:00:18;91344.59;;;7.77;69.43
65376;BME280;51976;47.332;9.404;2023-03-14T12:03:28;91351.78;;;7.55;69.45
65376;BME280;51976;47.332;9.404;2023-03-14T12:06:08;91343.06;;;7.35;70.68
65376;BME280;51976;47.332;9.404;2023-03-14T12:08:47;91362.59;;;7.63;69.83
65376;BME280;51976;47.332;9.404;2023-03-14T12:11:31;91379.19;;;7.24;69.72
65376;BME280;51976;47.332;9.404;2023-03-14T12:14:00;91374.84;;;7.28;69.98
65376;BME280;51976;47.332;9.404;2023-03-14T12:16:31;91396.94;;;7.20;69.60
65376;BME280;51976;47.332;9.404;2023-03-14T12:19:13;91408.69;;;7.10;69.29
65376;BME280;51976;47.332;9.404;2023-03-14T12:21:51;91406.59;;;7.07;69.09
65376;BME280;51976;47.332;9.404;2023-03-14T12:24:23;91428.22;;;7.11;68.90
65376;BME280;51976;47.332;9.404;2023-03-14T12:26:57;91433.53;;;6.97;68.67
65376;BME280;51976;47.332;9.404;2023-03-14T12:29:23;91441.94;;;6.58;70.39
65376;BME280;51976;47.332;9.404;2023-03-14T12:32:06;91437.88;;;6.61;69.92
65376;BME280;51976;47.332;9.404;2023-03-14T12:34:44;91451.13;;;6.71;69.12
65376;BME280;51976;47.332;9.404;2023-03-14T12:37:29;91464.38;;;6.62;68.91
65376;BME280;51976;47.332;9.404;2023-03-14T12:40:21;91462.19;;;6.64;69.60
65376;BME280;51976;47.332;9.404;2023-03-14T12:42:57;91458.47;;;6.47;69.13
65376;BME280;51976;47.332;9.404;2023-03-14T12:45:29;91458.47;;;6.09;69.53
65376;BME280;51976;47.332;9.404;2023-03-14T12:48:08;91486.16;;;6.18;69.63
65376;BME280;51976;47.332;9.404;2023-03-14T12:50:45;91502.66;;;6.25;68.95
65376;BME280;51976;47.332;9.404;2023-03-14T12:53:39;91487.75;;;6.00;69.73
65376;BME280;51976;47.332;9.404;2023-03-14T12:56:28;91509.22;;;6.14;69.57
65376;BME280;51976;47.332;9.404;2023-03-14T12:59:12;91498.38;;;6.05;69.17
65376;BME280;51976;47.332;9.404;2023-03-14T13:01:52;91507.13;;;5.87;69.47
65376;BME280;51976;47.332;9.404;2023-03-14T13:04:18;91498.75;;;5.99;69.10
65376;BME280;51976;47.332;9.404;2023-03-14T13:06:55;91507.41;;;6.09;69.55
65376;BME280;51976;47.332;9.404;2023-03-14T13:09:55;91516.28;;;6.05;68.60
65376;BME280;51976;47.332;9.404;2023-03-14T13:12:28;91526.38;;;6.13;67.94
65376;BME280;51976;47.332;9.404;2023-03-14T13:14:58;91527.97;;;6.14;68.07
65376;BME280;51976;47.332;9.404;2023-03-14T13:17:31;91526.00;;;6.01;68.13
65376;BME280;51976;47.332;9.404;2023-03-14T13:19:57;91545.59;;;6.15;68.08
65376;BME280;51976;47.332;9.404;2023-03-14T13:22:27;91549.25;;;6.24;67.02
65376;BME280;51976;47.332;9.404;2023-03-14T13:25:02;91541.34;;;6.33;67.26